createdAt,value
2023-01-13T00:00:19.599Z,3.37
2023-01-13T00:02:47.401Z,3.70
2023-01-13T00:05:15.104Z,2.50
2023-01-13T00:07:43.361Z,2.40
2023-01-13T00:10:12.479Z,2.00
2023-01-13T00:12:41.909Z,2.73
2023-01-13T00:15:11.217Z,2.20
2023-01-13T00:17:39.271Z,3.37
2023-01-13T00:20:07.865Z,3.40
2023-01-13T00:22:36.494Z,3.87
2023-01-13T00:25:06.622Z,3.93
2023-01-13T00:27:34.934Z,3.60
2023-01-13T00:30:02.864Z,3.87
2023-01-13T00:32:30.534Z,3.37
2023-01-13T00:34:58.875Z,2.07
2023-01-13T00:37:26.887Z,2.47
2023-01-13T00:39:54.755Z,2.03
2023-01-13T00:42:48.307Z,2.50
2023-01-13T00:45:16.018Z,1.63
2023-01-13T00:47:43.663Z,4.23
2023-01-13T00:50:11.940Z,3.20
2023-01-13T00:52:42.297Z,2.80
2023-01-13T00:55:10.342Z,3.13
2023-01-13T00:57:38.038Z,3.03
2023-01-13T01:00:05.936Z,2.87
2023-01-13T01:02:33.728Z,2.83
2023-01-13T01:05:01.411Z,3.00
2023-01-13T01:07:29.075Z,3.93
2023-01-13T01:09:56.701Z,2.90
2023-01-13T01:12:24.388Z,3.13
2023-01-13T01:14:51.995Z,3.67
2023-01-13T01:17:19.683Z,4.00
2023-01-13T01:19:47.361Z,2.73
2023-01-13T01:22:14.986Z,3.80
2023-01-13T01:24:42.589Z,4.17
2023-01-13T01:27:10.256Z,1.97
2023-01-13T01:29:37.899Z,2.73
2023-01-13T01:32:05.705Z,1.90
2023-01-13T01:34:33.436Z,2.27
2023-01-13T01:37:01.101Z,3.07
2023-01-13T01:39:28.756Z,3.83
2023-01-13T01:42:13.713Z,2.77
2023-01-13T01:44:44.488Z,2.93
2023-01-13T01:47:18.504Z,3.87
2023-01-13T01:49:47.499Z,2.43
2023-01-13T01:52:33.551Z,4.07
2023-01-13T01:55:16.892Z,2.47
2023-01-13T01:57:57.316Z,2.80
2023-01-13T02:00:27.854Z,2.17
2023-01-13T02:02:55.789Z,2.83
2023-01-13T02:05:24.524Z,2.00
2023-01-13T02:07:54.940Z,2.10
2023-01-13T02:10:27.661Z,2.67
2023-01-13T02:12:59.052Z,2.13
2023-01-13T02:15:36.684Z,3.63
2023-01-13T02:18:26.203Z,2.63
2023-01-13T02:21:08.958Z,2.63
2023-01-13T02:24:23.624Z,2.87
2023-01-13T02:27:16.157Z,3.33
2023-01-13T02:30:26.292Z,2.07
2023-01-13T02:33:11.975Z,3.50
2023-01-13T02:35:42.261Z,4.53
2023-01-13T02:38:14.636Z,3.83
2023-01-13T02:40:49.948Z,3.53
2023-01-13T02:43:48.935Z,2.80
2023-01-13T02:46:28.790Z,2.50
2023-01-13T02:49:02.558Z,3.77
2023-01-13T02:51:32.407Z,3.30
2023-01-13T02:54:11.224Z,3.33
2023-01-13T02:56:43.758Z,3.80
2023-01-13T02:59:12.941Z,5.10
2023-01-13T03:01:41.248Z,4.27
2023-01-13T03:04:17.198Z,4.77
2023-01-13T03:07:03.636Z,4.77
2023-01-13T03:09:40.864Z,4.30
2023-01-13T03:12:20.462Z,5.33
2023-01-13T03:15:09.732Z,4.30
2023-01-13T03:17:45.238Z,5.10
2023-01-13T03:20:50.605Z,5.80
2023-01-13T03:23:48.419Z,3.60
2023-01-13T03:26:38.124Z,5.43
2023-01-13T03:29:26.945Z,3.70
2023-01-13T03:32:09.539Z,3.93
2023-01-13T03:34:45.923Z,4.70
2023-01-13T03:37:15.821Z,2.93
2023-01-13T03:39:52.353Z,4.27
2023-01-13T03:42:24.841Z,2.77
2023-01-13T03:45:02.932Z,2.93
2023-01-13T03:47:30.528Z,2.90
2023-01-13T03:50:07.546Z,3.30
2023-01-13T03:52:56.446Z,4.60
2023-01-13T03:55:29.678Z,2.73
2023-01-13T03:58:19.939Z,2.90
2023-01-13T04:00:56.622Z,2.03
2023-01-13T04:03:42.085Z,3.80
2023-01-13T04:06:18.116Z,2.47
2023-01-13T04:08:52.582Z,2.53
2023-01-13T04:11:30.793Z,3.00
2023-01-13T04:13:59.664Z,4.27
2023-01-13T04:16:27.755Z,3.00
2023-01-13T04:18:55.448Z,3.73
2023-01-13T04:21:23.127Z,2.97
2023-01-13T04:23:51.894Z,4.50
2023-01-13T04:26:20.297Z,3.63
2023-01-13T04:28:47.937Z,3.63
2023-01-13T04:31:16.004Z,4.10
2023-01-13T04:33:43.705Z,3.53
2023-01-13T04:36:11.406Z,4.17
2023-01-13T04:38:39.108Z,4.87
2023-01-13T04:41:06.904Z,3.20
2023-01-13T04:43:34.541Z,2.83
2023-01-13T04:46:02.227Z,2.67
2023-01-13T04:48:29.858Z,4.40
2023-01-13T04:50:57.536Z,4.00
2023-01-13T04:53:25.209Z,3.20
2023-01-13T04:55:52.883Z,3.80
2023-01-13T04:58:20.987Z,3.60
2023-01-13T05:00:48.646Z,3.57
2023-01-13T05:03:16.313Z,3.17
2023-01-13T05:05:44.264Z,4.07
2023-01-13T05:08:11.882Z,3.30
2023-01-13T05:10:39.594Z,3.77
2023-01-13T05:13:24.588Z,3.07
2023-01-13T05:16:11.665Z,2.97
2023-01-13T05:18:39.375Z,3.57
2023-01-13T05:21:27.630Z,1.97
2023-01-13T05:24:12.912Z,3.13
2023-01-13T05:26:40.617Z,3.23
2023-01-13T05:29:08.272Z,3.87
2023-01-13T05:31:36.015Z,3.83
2023-01-13T05:34:03.631Z,2.83
2023-01-13T05:36:31.303Z,3.13
2023-01-13T05:38:58.945Z,2.23
2023-01-13T05:41:44.020Z,3.30
2023-01-13T05:44:11.633Z,2.27
2023-01-13T05:46:40.526Z,2.93
2023-01-13T05:49:08.409Z,3.93
2023-01-13T05:51:36.068Z,3.40
2023-01-13T05:54:03.726Z,3.00
2023-01-13T05:56:31.413Z,2.80
2023-01-13T05:58:59.061Z,3.43
2023-01-13T06:01:26.788Z,2.97
2023-01-13T06:03:54.523Z,3.77
2023-01-13T06:06:22.157Z,3.13
2023-01-13T06:08:50.212Z,4.00
2023-01-13T06:11:17.862Z,3.00
2023-01-13T06:13:45.563Z,3.50
2023-01-13T06:16:13.297Z,4.63
2023-01-13T06:18:40.943Z,3.70
2023-01-13T06:21:08.586Z,5.67
2023-01-13T06:23:38.568Z,4.13
2023-01-13T06:26:22.238Z,3.20
2023-01-13T06:28:50.074Z,2.47
2023-01-13T06:31:18.056Z,3.20
2023-01-13T06:33:53.302Z,2.43
2023-01-13T06:36:26.407Z,2.90
2023-01-13T06:38:57.700Z,2.70
2023-01-13T06:41:41.639Z,3.72
2023-01-13T06:44:09.320Z,6.63
2023-01-13T06:46:37.321Z,5.70
2023-01-13T06:49:07.041Z,4.33
2023-01-13T06:51:34.755Z,3.43
2023-01-13T06:54:02.375Z,3.87
2023-01-13T06:56:30.033Z,5.63
2023-01-13T06:58:57.680Z,6.60
2023-01-13T07:01:25.396Z,3.10
2023-01-13T07:03:53.079Z,5.33
2023-01-13T07:06:20.700Z,4.33
2023-01-13T07:08:49.851Z,5.33
2023-01-13T07:11:17.502Z,3.93
2023-01-13T07:14:02.526Z,5.90
2023-01-13T07:16:30.346Z,4.03
2023-01-13T07:18:58.018Z,4.10
2023-01-13T07:21:25.628Z,4.80
2023-01-13T07:23:53.270Z,3.93
2023-01-13T07:26:23.622Z,3.17
2023-01-13T07:28:51.329Z,3.57
2023-01-13T07:31:21.178Z,4.40
2023-01-13T07:33:49.103Z,3.20
2023-01-13T07:36:16.913Z,4.60
2023-01-13T07:38:45.307Z,3.77
2023-01-13T07:41:32.717Z,7.33
2023-01-13T07:44:04.775Z,6.03
2023-01-13T07:46:32.554Z,8.30
2023-01-13T07:49:00.337Z,7.07
2023-01-13T07:51:27.959Z,7.30
2023-01-13T07:53:55.667Z,5.30
2023-01-13T07:56:23.476Z,5.43
2023-01-13T07:58:52.975Z,6.17
2023-01-13T08:01:21.373Z,5.23
2023-01-13T08:03:49.060Z,4.00
2023-01-13T08:06:17.049Z,3.67
2023-01-13T08:08:44.746Z,4.60
2023-01-13T08:11:12.520Z,2.73
2023-01-13T08:13:40.354Z,3.93
2023-01-13T08:16:13.763Z,3.57
2023-01-13T08:18:42.256Z,3.57
2023-01-13T08:21:14.933Z,3.73
2023-01-13T08:23:44.955Z,4.10
2023-01-13T08:26:17.173Z,3.00
2023-01-13T08:28:45.943Z,3.83
2023-01-13T08:31:17.082Z,4.47
2023-01-13T08:33:45.000Z,5.00
2023-01-13T08:36:13.279Z,3.33
2023-01-13T08:38:41.945Z,3.53
2023-01-13T08:41:14.615Z,3.97
2023-01-13T08:43:42.335Z,4.30
2023-01-13T08:46:10.234Z,3.63
2023-01-13T08:48:38.924Z,4.90
2023-01-13T08:51:09.560Z,4.67
2023-01-13T08:53:37.406Z,4.30
2023-01-13T08:56:11.015Z,4.33
2023-01-13T08:58:38.839Z,4.60
2023-01-13T09:01:08.734Z,4.77
2023-01-13T09:03:36.510Z,4.20
2023-01-13T09:06:04.349Z,4.87
2023-01-13T09:08:32.089Z,4.63
2023-01-13T09:10:59.979Z,5.77
2023-01-13T09:13:26.635Z,5.37
2023-01-13T09:15:56.832Z,6.60
2023-01-13T09:18:24.785Z,5.93
2023-01-13T09:20:52.509Z,5.73
2023-01-13T09:23:20.224Z,5.50
2023-01-13T09:25:49.091Z,6.30
2023-01-13T09:28:16.815Z,4.90
2023-01-13T09:30:44.596Z,6.13
2023-01-13T09:33:29.827Z,4.43
2023-01-13T09:36:01.208Z,5.27
2023-01-13T09:38:29.014Z,5.53
2023-01-13T09:40:57.036Z,3.80
2023-01-13T09:44:00.340Z,3.40
2023-01-13T09:46:47.370Z,3.27
2023-01-13T09:49:29.170Z,3.33
2023-01-13T09:52:04.452Z,3.70
2023-01-13T09:54:39.526Z,2.93
2023-01-13T09:57:12.802Z,4.50
2023-01-13T09:59:40.581Z,4.23
2023-01-13T10:02:33.013Z,5.00
2023-01-13T10:05:18.725Z,5.07
2023-01-13T10:07:58.265Z,5.57
2023-01-13T10:10:38.245Z,4.97
2023-01-13T10:13:16.124Z,6.40
2023-01-13T10:16:11.377Z,5.93
2023-01-13T10:19:01.867Z,5.43
2023-01-13T10:21:49.901Z,5.23
2023-01-13T10:24:37.775Z,5.57
2023-01-13T10:27:13.917Z,4.60
2023-01-13T10:29:41.570Z,6.40
2023-01-13T10:32:10.244Z,4.47
2023-01-13T10:34:50.502Z,4.53
2023-01-13T10:37:26.937Z,6.93
2023-01-13T10:40:01.807Z,6.47
2023-01-13T10:42:29.972Z,5.53
2023-01-13T10:44:59.987Z,4.87
2023-01-13T10:47:36.673Z,4.40
2023-01-13T10:50:09.461Z,4.43
2023-01-13T10:52:43.032Z,4.17
2023-01-13T10:55:32.138Z,2.87
2023-01-13T10:58:26.276Z,4.13
2023-01-13T11:01:05.124Z,4.73
2023-01-13T11:03:42.818Z,5.23
2023-01-13T11:06:21.862Z,4.70
2023-01-13T11:08:52.441Z,5.37
2023-01-13T11:11:43.095Z,5.83
2023-01-13T11:14:43.740Z,4.80
2023-01-13T11:17:34.556Z,4.83
2023-01-13T11:20:20.115Z,5.60
2023-01-13T11:22:51.317Z,4.77
2023-01-13T11:25:32.462Z,5.20
2023-01-13T11:28:06.656Z,4.82
2023-01-13T11:30:50.736Z,4.93
2023-01-13T11:33:31.875Z,5.20
2023-01-13T11:36:09.153Z,4.47
2023-01-13T11:38:51.439Z,5.67
2023-01-13T11:41:29.401Z,5.30
2023-01-13T11:44:17.368Z,6.53
2023-01-13T11:46:45.428Z,4.53
2023-01-13T11:49:29.410Z,4.43
2023-01-13T11:52:20.522Z,4.40
2023-01-13T11:55:11.040Z,4.27
2023-01-13T11:57:56.861Z,5.20
2023-01-13T12:00:43.074Z,4.13
2023-01-13T12:03:29.095Z,3.90
2023-01-13T12:06:22.690Z,3.67
2023-01-13T12:08:56.161Z,5.33
2023-01-13T12:11:58.862Z,4.37
2023-01-13T12:14:41.366Z,5.07
2023-01-13T12:17:21.249Z,5.63
2023-01-13T12:19:51.355Z,4.07
2023-01-13T12:22:29.146Z,5.23
2023-01-13T12:25:06.261Z,4.57
2023-01-13T12:27:48.915Z,4.97
2023-01-13T12:30:41.874Z,5.03
2023-01-13T12:33:47.046Z,5.50
2023-01-13T12:36:41.826Z,5.47
2023-01-13T12:39:22.619Z,4.93
2023-01-13T12:42:23.093Z,6.23
2023-01-13T12:45:28.532Z,5.63
2023-01-13T12:47:57.510Z,6.33
2023-01-13T12:50:25.081Z,5.73
2023-01-13T12:52:52.677Z,5.10
2023-01-13T12:55:27.405Z,5.17
2023-01-13T12:57:59.658Z,5.20
2023-01-13T13:00:42.349Z,6.33
2023-01-13T13:03:13.812Z,5.07
2023-01-13T13:06:00.033Z,5.40
2023-01-13T13:08:27.654Z,5.63
2023-01-13T13:11:02.110Z,4.90
2023-01-13T13:13:47.522Z,5.80
2023-01-13T13:16:50.569Z,6.27
2023-01-13T13:19:21.301Z,5.67
2023-01-13T13:22:27.287Z,5.67
2023-01-13T13:24:58.344Z,5.87
2023-01-13T13:27:38.228Z,5.75
2023-01-13T13:30:37.900Z,6.13
2023-01-13T13:33:17.478Z,5.40
2023-01-13T13:35:52.182Z,7.10
2023-01-13T13:38:43.110Z,6.77
2023-01-13T13:41:36.249Z,5.70
2023-01-13T13:44:31.571Z,6.87
2023-01-13T13:47:02.996Z,6.03
2023-01-13T13:49:49.089Z,6.63
2023-01-13T13:52:31.559Z,6.00
2023-01-13T13:55:07.514Z,4.77
2023-01-13T13:57:42.400Z,6.27
2023-01-13T14:00:20.603Z,4.87
2023-01-13T14:02:52.818Z,4.03
2023-01-13T14:05:24.693Z,2.70
2023-01-13T14:10:31.531Z,2.27
2023-01-13T14:13:01.446Z,1.97
2023-01-13T14:15:36.055Z,0.90
2023-01-13T14:18:13.565Z,1.70
2023-01-13T14:20:42.276Z,1.53
2023-01-13T14:23:18.491Z,2.43
2023-01-13T14:25:51.586Z,6.33
2023-01-13T14:28:21.960Z,6.37
2023-01-13T14:30:51.626Z,7.23
2023-01-13T14:33:23.853Z,6.53
2023-01-13T14:36:18.214Z,6.50
2023-01-13T14:38:48.235Z,6.67
2023-01-13T14:41:28.502Z,5.50
2023-01-13T14:43:59.274Z,5.97
2023-01-13T14:46:44.924Z,5.20
2023-01-13T14:49:20.769Z,6.00
2023-01-13T14:51:48.584Z,5.80
2023-01-13T14:54:54.784Z,4.33
2023-01-13T14:57:32.331Z,4.80
2023-01-13T15:00:14.962Z,5.27
2023-01-13T15:02:57.987Z,5.03
2023-01-13T15:05:28.519Z,4.97
2023-01-13T15:08:04.620Z,4.83
2023-01-13T15:11:00.864Z,5.13
2023-01-13T15:13:35.729Z,4.53
2023-01-13T15:16:15.274Z,4.43
2023-01-13T15:18:43.118Z,4.73
2023-01-13T15:21:11.544Z,5.47
2023-01-13T15:23:41.130Z,10.23
2023-01-13T15:26:29.352Z,11.67
2023-01-13T15:28:59.468Z,8.60
2023-01-13T15:31:28.381Z,9.90
2023-01-13T15:33:56.374Z,8.23
2023-01-13T15:36:26.097Z,8.57
2023-01-13T15:38:53.897Z,9.83
2023-01-13T15:41:41.833Z,10.30
2023-01-13T15:44:30.211Z,9.27
2023-01-13T15:46:58.101Z,6.17
2023-01-13T15:49:34.916Z,7.40
2023-01-13T15:52:04.530Z,9.10
2023-01-13T15:54:32.707Z,8.97
2023-01-13T15:57:00.357Z,7.73
2023-01-13T15:59:29.134Z,7.97
2023-01-13T16:01:56.761Z,10.17
2023-01-13T16:04:24.413Z,8.17
2023-01-13T16:06:52.051Z,6.87
2023-01-13T16:09:19.737Z,5.63
2023-01-13T16:11:47.398Z,7.40
2023-01-13T16:14:15.075Z,8.07
2023-01-13T16:16:42.775Z,8.07
2023-01-13T16:19:12.982Z,4.27
2023-01-13T16:21:40.635Z,5.43
2023-01-13T16:24:08.281Z,4.23
2023-01-13T16:26:37.639Z,3.50
2023-01-13T16:29:07.240Z,4.57
2023-01-13T16:31:35.721Z,4.60
2023-01-13T16:34:05.628Z,5.03
2023-01-13T16:36:36.642Z,3.43
2023-01-13T16:39:05.096Z,4.13
2023-01-13T16:41:34.454Z,6.13
2023-01-13T16:44:05.978Z,6.27
2023-01-13T16:46:33.908Z,6.97
2023-01-13T16:49:04.786Z,5.57
2023-01-13T16:51:33.229Z,2.47
2023-01-13T16:54:01.109Z,2.90
2023-01-13T16:56:31.973Z,4.70
2023-01-13T16:59:05.685Z,4.70
2023-01-13T17:01:35.513Z,6.30
2023-01-13T17:04:03.259Z,4.40
2023-01-13T17:06:40.886Z,6.00
2023-01-13T17:09:18.074Z,9.03
2023-01-13T17:11:45.736Z,9.93
2023-01-13T17:14:18.294Z,10.27
2023-01-13T17:16:47.884Z,9.50
2023-01-13T17:19:15.678Z,7.77
2023-01-13T17:21:43.406Z,9.00
2023-01-13T17:24:12.435Z,9.03
2023-01-13T17:26:47.556Z,7.23
2023-01-13T17:29:18.552Z,7.63
2023-01-13T17:31:46.380Z,6.97
2023-01-13T17:34:14.257Z,6.53
2023-01-13T17:36:43.456Z,7.87
2023-01-13T17:39:17.343Z,8.20
2023-01-13T17:41:45.857Z,10.40
2023-01-13T17:44:18.049Z,10.90
2023-01-13T17:46:46.389Z,9.90
2023-01-13T17:49:15.145Z,8.90
2023-01-13T17:51:42.964Z,9.33
2023-01-13T17:54:12.421Z,7.67
2023-01-13T17:56:41.541Z,5.63
2023-01-13T17:59:12.233Z,4.90
2023-01-13T18:01:40.218Z,6.50
2023-01-13T18:04:08.163Z,6.87
2023-01-13T18:06:35.807Z,7.73
2023-01-13T18:09:03.516Z,6.77
2023-01-13T18:11:31.156Z,11.53
2023-01-13T18:14:00.201Z,7.80
2023-01-13T18:16:30.328Z,8.87
2023-01-13T18:19:19.261Z,7.27
2023-01-13T18:22:04.789Z,6.37
2023-01-13T18:24:49.147Z,5.77
2023-01-13T18:27:22.949Z,5.80
2023-01-13T18:29:55.968Z,7.97
2023-01-13T18:32:26.412Z,8.63
2023-01-13T18:35:05.098Z,6.23
2023-01-13T18:37:35.718Z,7.43
2023-01-13T18:40:03.718Z,5.97
2023-01-13T18:42:48.873Z,5.93
2023-01-13T18:45:16.678Z,7.90
2023-01-13T18:47:44.295Z,5.53
2023-01-13T18:50:13.821Z,7.77
2023-01-13T18:52:41.793Z,6.10
2023-01-13T18:55:10.011Z,5.50
2023-01-13T18:57:40.019Z,6.80
2023-01-13T19:00:14.746Z,6.90
2023-01-13T19:02:42.475Z,7.23
2023-01-13T19:05:10.944Z,10.53
2023-01-13T19:07:39.144Z,8.33
2023-01-13T19:10:09.794Z,11.13
2023-01-13T19:12:37.794Z,10.23
2023-01-13T19:15:06.080Z,6.53
2023-01-13T19:17:35.699Z,6.10
2023-01-13T19:20:05.149Z,5.73
2023-01-13T19:22:35.225Z,7.00
2023-01-13T19:25:04.072Z,8.30
2023-01-13T19:27:32.281Z,5.57
2023-01-13T19:30:00.766Z,5.80
2023-01-13T19:32:30.915Z,6.37
2023-01-13T19:34:59.810Z,6.47
2023-01-13T19:37:30.301Z,3.93
2023-01-13T19:40:01.272Z,3.33
2023-01-13T19:42:46.613Z,3.00
2023-01-13T19:45:30.652Z,5.00
2023-01-13T19:48:01.698Z,6.30
2023-01-13T19:50:30.291Z,4.22
2023-01-13T19:52:58.021Z,5.13
2023-01-13T19:55:25.667Z,3.40
2023-01-13T19:57:53.385Z,3.97
2023-01-13T20:00:21.929Z,4.37
2023-01-13T20:02:52.030Z,6.33
2023-01-13T20:05:22.696Z,4.20
2023-01-13T20:07:51.916Z,4.50
2023-01-13T20:10:21.673Z,2.67
2023-01-13T20:12:49.507Z,3.07
2023-01-13T20:15:17.368Z,4.00
2023-01-13T20:17:45.066Z,3.53
2023-01-13T20:20:13.666Z,4.47
2023-01-13T20:22:41.705Z,6.23
2023-01-13T20:25:10.319Z,5.60
2023-01-13T20:27:38.031Z,7.77
2023-01-13T20:30:09.484Z,6.93
2023-01-13T20:32:37.664Z,7.70
2023-01-13T20:35:07.148Z,9.03
2023-01-13T20:37:35.862Z,8.67
2023-01-13T20:40:05.034Z,6.90
2023-01-13T20:42:42.331Z,8.53
2023-01-13T20:45:10.556Z,6.73
2023-01-13T20:47:38.195Z,6.50
2023-01-13T20:50:06.106Z,5.03
2023-01-13T20:52:33.938Z,5.50
2023-01-13T20:55:01.596Z,4.27
2023-01-13T20:57:29.259Z,4.13
2023-01-13T20:59:56.915Z,6.83
2023-01-13T21:02:25.429Z,5.00
2023-01-13T21:04:53.168Z,5.43
2023-01-13T21:07:20.961Z,5.93
2023-01-13T21:09:48.639Z,5.60
2023-01-13T21:12:34.214Z,3.57
2023-01-13T21:15:21.925Z,6.03
2023-01-13T21:18:09.323Z,5.10
2023-01-13T21:20:38.676Z,4.33
2023-01-13T21:23:07.221Z,6.17
2023-01-13T21:25:37.239Z,3.87
2023-01-13T21:28:08.607Z,4.60
2023-01-13T21:30:38.293Z,6.13
2023-01-13T21:33:06.341Z,7.50
2023-01-13T21:35:34.482Z,5.33
2023-01-13T21:38:02.107Z,4.70
2023-01-13T21:40:29.783Z,5.27
2023-01-13T21:43:14.872Z,4.83
2023-01-13T21:45:59.932Z,6.20
2023-01-13T21:48:27.576Z,7.20
2023-01-13T21:50:55.229Z,5.93
2023-01-13T21:53:22.868Z,5.20
2023-01-13T21:55:53.670Z,6.03
2023-01-13T21:58:21.274Z,5.70
2023-01-13T22:00:49.824Z,5.37
2023-01-13T22:03:18.588Z,9.30
2023-01-13T22:05:46.500Z,8.10
2023-01-13T22:08:14.737Z,6.77
2023-01-13T22:10:57.134Z,8.23
2023-01-13T22:13:42.412Z,6.73
2023-01-13T22:16:12.503Z,7.80
2023-01-13T22:18:40.212Z,6.57
2023-01-13T22:21:08.060Z,9.20
2023-01-13T22:23:35.696Z,6.77
2023-01-13T22:26:08.264Z,7.10
2023-01-13T22:28:40.778Z,8.93
2023-01-13T22:31:16.582Z,7.80
2023-01-13T22:33:46.956Z,7.40
2023-01-13T22:36:15.751Z,6.60
2023-01-13T22:38:43.458Z,7.93
2023-01-13T22:41:11.579Z,7.83
2023-01-13T22:43:39.651Z,6.77
2023-01-13T22:46:12.552Z,7.40
2023-01-13T22:48:41.679Z,8.43
2023-01-13T22:51:12.657Z,6.50
2023-01-13T22:53:41.191Z,6.63
2023-01-13T22:56:11.650Z,5.97
2023-01-13T22:58:39.259Z,6.37
2023-01-13T23:01:18.321Z,9.03
2023-01-13T23:03:48.321Z,7.43
2023-01-13T23:06:18.179Z,8.63
2023-01-13T23:08:47.084Z,9.63
2023-01-13T23:11:17.281Z,6.80
2023-01-13T23:13:45.427Z,7.73
2023-01-13T23:16:16.482Z,6.50
2023-01-13T23:18:47.740Z,8.75
2023-01-13T23:21:22.032Z,7.53
2023-01-13T23:23:50.251Z,9.20
2023-01-13T23:26:17.974Z,7.13
2023-01-13T23:28:45.836Z,8.63
2023-01-13T23:31:16.345Z,8.97
2023-01-13T23:33:44.897Z,8.70
2023-01-13T23:36:21.421Z,8.23
2023-01-13T23:38:49.502Z,9.37
2023-01-13T23:41:19.624Z,8.03
2023-01-13T23:43:55.808Z,8.23
2023-01-13T23:46:23.872Z,6.67
2023-01-13T23:48:52.540Z,8.37
2023-01-13T23:51:21.897Z,8.07
2023-01-13T23:53:50.653Z,6.13
2023-01-13T23:56:23.623Z,7.03
2023-01-13T23:58:52.230Z,8.07
